createdAt,value
2018-04-30T00:00:38.380Z,996.3
2018-04-30T00:01:41.111Z,996.3
2018-04-30T00:02:43.552Z,996.3
2018-04-30T00:03:45.993Z,996.3
2018-04-30T00:04:48.428Z,996.3
2018-04-30T00:05:50.861Z,996.3
2018-04-30T00:06:53.296Z,996.2
2018-04-30T00:07:55.727Z,996.3
2018-04-30T00:08:58.180Z,996.3
2018-04-30T00:10:00.621Z,996.3
2018-04-30T00:11:03.067Z,996.2
2018-04-30T00:12:05.508Z,996.2
2018-04-30T00:13:07.946Z,996.2
2018-04-30T00:14:10.387Z,996.1
2018-04-30T00:15:12.826Z,996
2018-04-30T00:16:15.653Z,996.1
2018-04-30T00:17:18.093Z,996
2018-04-30T00:18:20.535Z,996
2018-04-30T00:19:22.977Z,996
2018-04-30T00:20:25.407Z,996
2018-04-30T00:21:27.850Z,996
2018-04-30T00:22:30.315Z,996
2018-04-30T00:23:32.733Z,996
2018-04-30T00:24:35.178Z,996
2018-04-30T00:25:37.619Z,995.9
2018-04-30T00:26:40.057Z,995.9
2018-04-30T00:27:42.794Z,995.9
2018-04-30T00:28:45.530Z,995.9
2018-04-30T00:29:47.968Z,995.8
2018-04-30T00:30:50.405Z,995.9
2018-04-30T00:31:52.843Z,995.8
2018-04-30T00:32:55.268Z,995.8
2018-04-30T00:33:57.710Z,995.8
2018-04-30T00:35:00.146Z,995.7
2018-04-30T00:36:02.881Z,995.7
2018-04-30T00:37:05.312Z,995.7
2018-04-30T00:38:07.750Z,995.7
2018-04-30T00:39:10.184Z,995.6
2018-04-30T00:40:12.627Z,995.6
2018-04-30T00:41:15.059Z,995.6
2018-04-30T00:42:17.492Z,995.6
2018-04-30T00:43:19.949Z,995.6
2018-04-30T00:44:22.375Z,995.5
2018-04-30T00:45:25.389Z,995.6
2018-04-30T00:46:28.125Z,995.5
2018-04-30T00:47:30.558Z,995.5
2018-04-30T00:48:32.999Z,995.5
2018-04-30T00:49:35.441Z,995.5
2018-04-30T00:50:37.883Z,995.5
2018-04-30T00:51:40.614Z,995.5
2018-04-30T00:52:43.055Z,995.4
2018-04-30T00:53:45.797Z,995.4
2018-04-30T00:54:48.235Z,995.4
2018-04-30T00:55:50.953Z,995.3
2018-04-30T00:56:53.385Z,995.4
2018-04-30T00:57:55.822Z,995.3
2018-04-30T00:58:58.542Z,995.3
2018-04-30T01:00:00.977Z,995.3
2018-04-30T01:01:04.048Z,995.3
2018-04-30T01:02:06.775Z,995.2
2018-04-30T01:03:09.210Z,995.2
2018-04-30T01:04:11.652Z,995.1
2018-04-30T01:05:14.094Z,995.2
2018-04-30T01:06:16.534Z,995.1
2018-04-30T01:07:18.973Z,995.1
2018-04-30T01:08:21.729Z,995
2018-04-30T01:09:24.160Z,995
2018-04-30T01:10:26.603Z,995
2018-04-30T01:11:29.042Z,995
2018-04-30T01:12:31.483Z,995
2018-04-30T01:13:33.921Z,994.9
2018-04-30T01:14:36.362Z,994.9
2018-04-30T01:15:38.782Z,994.9
2018-04-30T01:16:41.216Z,994.8
2018-04-30T01:17:43.672Z,994.8
2018-04-30T01:18:46.112Z,994.8
2018-04-30T01:19:48.550Z,994.8
2018-04-30T01:20:51.376Z,994.8
2018-04-30T01:21:53.819Z,994.7
2018-04-30T01:22:56.274Z,994.7
2018-04-30T01:23:58.712Z,994.6
2018-04-30T01:25:01.139Z,994.6
2018-04-30T01:26:03.573Z,994.6
2018-04-30T01:27:06.018Z,994.6
2018-04-30T01:28:08.736Z,994.5
2018-04-30T01:29:11.553Z,994.6
2018-04-30T01:30:13.996Z,994.5
2018-04-30T01:31:16.443Z,994.5
2018-04-30T01:32:18.873Z,994.5
2018-04-30T01:33:21.316Z,994.5
2018-04-30T01:34:23.760Z,994.5
2018-04-30T01:35:26.206Z,994.4
2018-04-30T01:36:28.641Z,994.5
2018-04-30T01:37:31.476Z,994.5
2018-04-30T01:38:33.900Z,994.5
2018-04-30T01:39:36.814Z,994.5
2018-04-30T01:40:39.537Z,994.5
2018-04-30T01:41:41.967Z,994.5
2018-04-30T01:42:44.418Z,994.5
2018-04-30T01:43:47.128Z,994.4
2018-04-30T01:44:49.578Z,994.4
2018-04-30T01:45:52.000Z,994.4
2018-04-30T01:46:54.440Z,994.4
2018-04-30T01:47:56.881Z,994.4
2018-04-30T01:48:59.327Z,994.4
2018-04-30T01:50:02.035Z,994.3
2018-04-30T01:51:04.767Z,994.3
2018-04-30T01:52:07.202Z,994.3
2018-04-30T01:53:09.637Z,994.3
2018-04-30T01:54:12.085Z,994.3
2018-04-30T01:55:14.814Z,994.2
2018-04-30T01:56:17.242Z,994.2
2018-04-30T01:57:19.684Z,994.2
2018-04-30T01:58:22.117Z,994.1
2018-04-30T01:59:24.567Z,994.1
2018-04-30T02:00:27.009Z,994.1
2018-04-30T02:01:29.447Z,994.1
2018-04-30T02:02:31.888Z,994.1
2018-04-30T02:03:34.323Z,994.1
2018-04-30T02:04:36.766Z,994.1
2018-04-30T02:05:39.192Z,994
2018-04-30T02:06:41.620Z,994.1
2018-04-30T02:07:44.356Z,994.1
2018-04-30T02:08:46.796Z,994
2018-04-30T02:09:49.232Z,994
2018-04-30T02:10:52.362Z,994
2018-04-30T02:11:54.804Z,994
2018-04-30T02:12:57.242Z,993.9
2018-04-30T02:14:00.072Z,993.9
2018-04-30T02:15:02.500Z,993.9
2018-04-30T02:16:04.945Z,993.9
2018-04-30T02:17:07.377Z,993.9
2018-04-30T02:18:09.815Z,993.8
2018-04-30T02:19:12.257Z,993.8
2018-04-30T02:20:14.700Z,993.8
2018-04-30T02:21:17.417Z,993.8
2018-04-30T02:22:19.862Z,993.7
2018-04-30T02:23:22.296Z,993.7
2018-04-30T02:24:25.415Z,993.7
2018-04-30T02:25:27.857Z,993.6
2018-04-30T02:26:30.292Z,993.6
2018-04-30T02:27:32.729Z,993.6
2018-04-30T02:28:35.173Z,993.6
2018-04-30T02:29:37.679Z,993.6
2018-04-30T02:30:40.052Z,993.6
2018-04-30T02:31:42.486Z,993.5
2018-04-30T02:32:45.300Z,993.5
2018-04-30T02:33:48.048Z,993.4
2018-04-30T02:34:50.790Z,993.4
2018-04-30T02:35:53.611Z,993.4
2018-04-30T02:36:56.456Z,993.4
2018-04-30T02:37:59.185Z,993.4
2018-04-30T02:39:01.640Z,993.3
2018-04-30T02:40:04.468Z,993.3
2018-04-30T02:41:07.214Z,993.2
2018-04-30T02:42:10.244Z,993.1
2018-04-30T02:43:12.691Z,993.1
2018-04-30T02:44:15.411Z,993.1
2018-04-30T02:45:18.255Z,993.1
2018-04-30T02:46:20.959Z,993
2018-04-30T02:47:23.699Z,993
2018-04-30T02:48:26.150Z,993
2018-04-30T02:49:29.166Z,993
2018-04-30T02:50:32.183Z,992.9
2018-04-30T02:51:35.015Z,992.9
2018-04-30T02:52:37.739Z,992.9
2018-04-30T02:53:40.189Z,992.9
2018-04-30T02:54:42.914Z,992.8
2018-04-30T02:55:45.344Z,992.9
2018-04-30T02:56:47.786Z,992.8
2018-04-30T02:57:50.233Z,992.8
2018-04-30T02:58:52.676Z,992.8
2018-04-30T02:59:55.398Z,992.7
2018-04-30T03:00:58.124Z,992.7
2018-04-30T03:02:00.570Z,992.6
2018-04-30T03:03:03.292Z,992.6
2018-04-30T03:04:06.130Z,992.6
2018-04-30T03:05:08.550Z,992.6
2018-04-30T03:06:11.291Z,992.6
2018-04-30T03:07:14.028Z,992.5
2018-04-30T03:08:17.039Z,992.5
2018-04-30T03:09:19.482Z,992.5
2018-04-30T03:10:21.921Z,992.5
2018-04-30T03:11:24.344Z,992.4
2018-04-30T03:12:27.687Z,992.4
2018-04-30T03:13:30.127Z,992.3
2018-04-30T03:14:32.855Z,992.3
2018-04-30T03:15:35.581Z,992.2
2018-04-30T03:16:38.704Z,992.2
2018-04-30T03:17:41.136Z,992.1
2018-04-30T03:18:43.865Z,992.1
2018-04-30T03:19:46.300Z,992.1
2018-04-30T03:20:48.732Z,992.1
2018-04-30T03:21:51.175Z,992.1
2018-04-30T03:22:53.620Z,992.1
2018-04-30T03:23:56.056Z,992.1
2018-04-30T03:24:58.498Z,992.1
2018-04-30T03:26:00.941Z,992.1
2018-04-30T03:27:03.668Z,992
2018-04-30T03:28:06.104Z,992
2018-04-30T03:29:08.548Z,992
2018-04-30T03:30:10.988Z,991.9
2018-04-30T03:31:14.106Z,991.9
2018-04-30T03:32:16.555Z,992
2018-04-30T03:33:19.558Z,992
2018-04-30T03:34:22.381Z,992
2018-04-30T03:35:25.101Z,991.9
2018-04-30T03:36:27.535Z,992
2018-04-30T03:37:29.973Z,991.9
2018-04-30T03:38:32.429Z,991.9
2018-04-30T03:39:34.859Z,991.8
2018-04-30T03:40:37.583Z,991.9
2018-04-30T03:41:40.016Z,991.8
2018-04-30T03:42:42.457Z,991.8
2018-04-30T03:43:44.900Z,991.8
2018-04-30T03:44:47.344Z,991.9
2018-04-30T03:45:49.768Z,991.9
2018-04-30T03:46:52.202Z,991.8
2018-04-30T03:47:54.636Z,991.8
2018-04-30T03:48:57.076Z,991.7
2018-04-30T03:49:59.513Z,991.8
2018-04-30T03:51:01.955Z,991.8
2018-04-30T03:52:04.394Z,991.7
2018-04-30T03:53:06.840Z,991.8
2018-04-30T03:54:09.277Z,991.8
2018-04-30T03:55:12.116Z,991.8
2018-04-30T03:56:14.561Z,991.6
2018-04-30T03:57:17.271Z,991.7
2018-04-30T03:58:19.709Z,991.7
2018-04-30T03:59:22.140Z,991.6
2018-04-30T04:00:24.575Z,991.6
2018-04-30T04:01:27.014Z,991.6
2018-04-30T04:02:29.464Z,991.5
2018-04-30T04:03:32.495Z,991.6
2018-04-30T04:04:34.949Z,991.5
2018-04-30T04:05:37.386Z,991.4
2018-04-30T04:06:40.100Z,991.4
2018-04-30T04:07:42.546Z,991.4
2018-04-30T04:08:44.975Z,991.4
2018-04-30T04:09:47.407Z,991.4
2018-04-30T04:10:49.855Z,991.3
2018-04-30T04:11:52.293Z,991.4
2018-04-30T04:12:54.732Z,991.3
2018-04-30T04:13:57.173Z,991.3
2018-04-30T04:14:59.600Z,991.2
2018-04-30T04:16:02.323Z,991.2
2018-04-30T04:17:05.065Z,991.2
2018-04-30T04:18:07.487Z,991.2
2018-04-30T04:19:10.234Z,991.2
2018-04-30T04:20:13.057Z,991.2
2018-04-30T04:21:15.495Z,991.2
2018-04-30T04:22:18.230Z,991.2
2018-04-30T04:23:20.665Z,991.2
2018-04-30T04:24:23.101Z,991.2
2018-04-30T04:25:25.540Z,991.1
2018-04-30T04:26:27.989Z,991
2018-04-30T04:27:30.717Z,991.1
2018-04-30T04:28:33.137Z,991.1
2018-04-30T04:29:35.576Z,991.1
2018-04-30T04:30:38.605Z,991
2018-04-30T04:31:41.043Z,991
2018-04-30T04:32:43.483Z,991.1
2018-04-30T04:33:45.912Z,991
2018-04-30T04:34:48.344Z,991
2018-04-30T04:35:50.789Z,991
2018-04-30T04:36:53.232Z,991
2018-04-30T04:37:55.665Z,990.9
2018-04-30T04:38:58.100Z,990.9
2018-04-30T04:40:00.551Z,990.8
2018-04-30T04:41:03.573Z,990.8
2018-04-30T04:42:06.011Z,990.8
2018-04-30T04:43:08.447Z,990.8
2018-04-30T04:44:11.167Z,990.8
2018-04-30T04:45:13.608Z,990.7
2018-04-30T04:46:16.051Z,990.8
2018-04-30T04:47:19.090Z,990.7
2018-04-30T04:48:21.530Z,990.7
2018-04-30T04:49:23.969Z,990.7
2018-04-30T04:50:26.791Z,990.8
2018-04-30T04:51:29.541Z,990.7
2018-04-30T04:52:31.967Z,990.8
2018-04-30T04:53:34.690Z,990.8
2018-04-30T04:54:37.448Z,990.8
2018-04-30T04:55:40.187Z,990.7
2018-04-30T04:56:42.626Z,990.8
2018-04-30T04:57:45.064Z,990.8
2018-04-30T04:58:47.790Z,990.8
2018-04-30T04:59:50.226Z,990.7
2018-04-30T05:00:52.659Z,990.7
2018-04-30T05:01:55.103Z,990.7
2018-04-30T05:02:57.926Z,990.6
2018-04-30T05:04:00.374Z,990.6
2018-04-30T05:05:02.806Z,990.6
2018-04-30T05:06:05.529Z,990.6
2018-04-30T05:07:07.980Z,990.5
2018-04-30T05:08:10.802Z,990.6
2018-04-30T05:09:13.250Z,990.5
2018-04-30T05:10:16.544Z,990.5
2018-04-30T05:11:18.978Z,990.5
2018-04-30T05:12:21.710Z,990.5
2018-04-30T05:13:24.149Z,990.5
2018-04-30T05:14:26.588Z,990.5
2018-04-30T05:15:29.034Z,990.4
2018-04-30T05:16:31.470Z,990.5
2018-04-30T05:17:33.906Z,990.5
2018-04-30T05:18:36.647Z,990.4
2018-04-30T05:19:39.365Z,990.4
2018-04-30T05:20:41.815Z,990.4
2018-04-30T05:21:44.258Z,990.3
2018-04-30T05:22:46.695Z,990.3
2018-04-30T05:23:49.417Z,990.4
2018-04-30T05:24:51.860Z,990.3
2018-04-30T05:25:54.592Z,990.3
2018-04-30T05:26:57.047Z,990.2
2018-04-30T05:27:59.469Z,990.3
2018-04-30T05:29:01.914Z,990.3
2018-04-30T05:30:04.730Z,990.2
2018-04-30T05:31:07.452Z,990.2
2018-04-30T05:32:09.890Z,990.2
2018-04-30T05:33:12.719Z,990.2
2018-04-30T05:34:15.165Z,990.2
2018-04-30T05:35:17.615Z,990.1
2018-04-30T05:36:20.057Z,990.1
2018-04-30T05:37:22.497Z,990.1
2018-04-30T05:38:24.939Z,990.1
2018-04-30T05:39:27.372Z,990
2018-04-30T05:40:29.829Z,990
2018-04-30T05:41:32.559Z,990
2018-04-30T05:42:34.990Z,989.9
2018-04-30T05:43:37.444Z,989.9
2018-04-30T05:44:39.886Z,989.9
2018-04-30T05:45:42.337Z,989.8
2018-04-30T05:46:44.773Z,989.9
2018-04-30T05:47:47.212Z,989.9
2018-04-30T05:48:49.650Z,989.8
2018-04-30T05:49:52.105Z,989.9
2018-04-30T05:50:54.936Z,989.8
2018-04-30T05:51:57.652Z,989.8
2018-04-30T05:53:00.417Z,989.7
2018-04-30T05:54:02.855Z,989.7
2018-04-30T05:55:05.299Z,989.8
2018-04-30T05:56:08.736Z,989.7
2018-04-30T05:57:11.176Z,989.7
2018-04-30T05:58:13.612Z,989.6
2018-04-30T05:59:16.367Z,989.7
2018-04-30T06:00:18.801Z,989.8
2018-04-30T06:01:21.528Z,989.7
2018-04-30T06:02:23.969Z,989.7
2018-04-30T06:03:26.403Z,989.7
2018-04-30T06:04:29.518Z,989.7
2018-04-30T06:05:32.242Z,989.6
2018-04-30T06:06:34.666Z,989.7
2018-04-30T06:07:37.107Z,989.7
2018-04-30T06:08:39.549Z,989.7
2018-04-30T06:09:41.986Z,989.6
2018-04-30T06:10:44.429Z,989.6
2018-04-30T06:11:47.154Z,989.6
2018-04-30T06:12:49.596Z,989.6
2018-04-30T06:13:52.048Z,989.6
2018-04-30T06:14:54.490Z,989.6
2018-04-30T06:15:56.926Z,989.5
2018-04-30T06:16:59.385Z,989.5
2018-04-30T06:18:01.825Z,989.6
2018-04-30T06:19:04.260Z,989.6
2018-04-30T06:20:06.700Z,989.6
2018-04-30T06:21:09.151Z,989.6
2018-04-30T06:22:11.585Z,989.6
2018-04-30T06:23:14.029Z,989.7
2018-04-30T06:24:16.479Z,989.7
2018-04-30T06:25:18.910Z,989.7
2018-04-30T06:26:21.655Z,989.7
2018-04-30T06:27:24.110Z,989.7
2018-04-30T06:28:26.536Z,989.7
2018-04-30T06:29:28.979Z,989.7
2018-04-30T06:30:31.433Z,989.7
2018-04-30T06:31:34.152Z,989.7
2018-04-30T06:32:36.609Z,989.8
2018-04-30T06:33:39.039Z,989.7
2018-04-30T06:34:41.485Z,989.6
2018-04-30T06:35:44.216Z,989.6
2018-04-30T06:36:46.653Z,989.6
2018-04-30T06:37:49.095Z,989.5
2018-04-30T06:38:51.542Z,989.5
2018-04-30T06:39:53.983Z,989.5
2018-04-30T06:40:56.778Z,989.5
2018-04-30T06:41:59.150Z,989.5
2018-04-30T06:43:01.608Z,989.5
2018-04-30T06:44:04.047Z,989.5
2018-04-30T06:45:06.492Z,989.5
2018-04-30T06:46:08.936Z,989.5
2018-04-30T06:47:11.382Z,989.6
2018-04-30T06:48:14.419Z,989.6
2018-04-30T06:49:16.855Z,989.6
2018-04-30T06:50:19.288Z,989.6
2018-04-30T06:51:21.748Z,989.6
2018-04-30T06:52:24.191Z,989.6
2018-04-30T06:53:27.137Z,989.5
2018-04-30T06:54:29.937Z,989.6
2018-04-30T06:55:32.387Z,989.6
2018-04-30T06:56:35.204Z,989.7
2018-04-30T06:57:38.052Z,989.7
2018-04-30T06:58:40.494Z,989.8
2018-04-30T06:59:42.939Z,989.8
2018-04-30T07:00:45.390Z,989.7
2018-04-30T07:01:47.831Z,989.7
2018-04-30T07:02:50.561Z,989.7
2018-04-30T07:03:53.317Z,989.7
2018-04-30T07:04:55.751Z,989.7
2018-04-30T07:05:58.204Z,989.6
2018-04-30T07:07:00.935Z,989.6
2018-04-30T07:08:03.666Z,989.5
2018-04-30T07:09:06.205Z,989.5
2018-04-30T07:10:08.561Z,989.5
2018-04-30T07:11:11.004Z,989.6
2018-04-30T07:12:13.450Z,989.7
2018-04-30T07:13:15.895Z,989.6
2018-04-30T07:14:18.344Z,989.6
2018-04-30T07:15:20.776Z,989.6
2018-04-30T07:16:23.237Z,989.6
2018-04-30T07:17:26.347Z,989.7
2018-04-30T07:18:28.790Z,989.7
2018-04-30T07:19:31.228Z,989.7
2018-04-30T07:20:33.682Z,989.6
2018-04-30T07:21:36.124Z,989.6
2018-04-30T07:22:38.578Z,989.6
2018-04-30T07:23:41.028Z,989.7
2018-04-30T07:24:43.472Z,989.7
2018-04-30T07:25:45.918Z,989.7
2018-04-30T07:26:48.356Z,989.6
2018-04-30T07:27:50.819Z,989.6
2018-04-30T07:28:53.247Z,989.6
2018-04-30T07:29:55.694Z,989.7
2018-04-30T07:30:58.419Z,989.6
2018-04-30T07:32:00.890Z,989.5
2018-04-30T07:33:03.321Z,989.5
2018-04-30T07:34:05.766Z,989.6
2018-04-30T07:35:08.215Z,989.5
2018-04-30T07:36:10.953Z,989.6
2018-04-30T07:37:13.980Z,989.5
2018-04-30T07:38:16.721Z,989.5
2018-04-30T07:39:19.165Z,989.4
2018-04-30T07:40:21.602Z,989.4
2018-04-30T07:41:24.061Z,989.4
2018-04-30T07:42:27.082Z,989.4
2018-04-30T07:43:29.522Z,989.3
2018-04-30T07:44:31.970Z,989.3
2018-04-30T07:45:34.707Z,989.3
2018-04-30T07:46:37.155Z,989.2
2018-04-30T07:47:39.605Z,989.2
2018-04-30T07:48:42.030Z,989.1
2018-04-30T07:49:44.486Z,989.2
2018-04-30T07:50:47.329Z,989.4
2018-04-30T07:51:49.766Z,989.4
2018-04-30T07:52:52.213Z,989.4
2018-04-30T07:53:54.640Z,989.3
2018-04-30T07:54:57.088Z,989.2
2018-04-30T07:55:59.527Z,989.2
2018-04-30T07:57:01.970Z,989.1
2018-04-30T07:58:04.693Z,989
2018-04-30T07:59:07.140Z,989
2018-04-30T08:00:09.579Z,989
2018-04-30T08:01:12.327Z,989
2018-04-30T08:02:15.165Z,989.1
2018-04-30T08:03:17.901Z,989
2018-04-30T08:04:20.339Z,989
2018-04-30T08:05:23.076Z,988.9
2018-04-30T08:06:25.517Z,988.9
2018-04-30T08:07:28.251Z,988.9
2018-04-30T08:08:30.692Z,989
2018-04-30T08:09:33.431Z,988.9
2018-04-30T08:10:36.165Z,989
2018-04-30T08:11:38.612Z,989
2018-04-30T08:12:41.047Z,989.1
2018-04-30T08:13:43.486Z,989.1
2018-04-30T08:14:46.035Z,989.2
2018-04-30T08:15:48.679Z,989.3
2018-04-30T08:16:51.152Z,989.3
2018-04-30T08:17:53.588Z,989.3
2018-04-30T08:18:56.393Z,989.3
2018-04-30T08:19:58.843Z,989.2
2018-04-30T08:21:01.289Z,989.1
2018-04-30T08:22:03.731Z,989.1
2018-04-30T08:23:06.457Z,989
2018-04-30T08:24:09.290Z,989.1
2018-04-30T08:25:12.021Z,989.1
2018-04-30T08:26:14.459Z,989.1
2018-04-30T08:27:16.920Z,989.1
2018-04-30T08:28:19.364Z,989.1
2018-04-30T08:29:22.472Z,989.1
2018-04-30T08:30:24.924Z,989.2
2018-04-30T08:31:27.374Z,989.2
2018-04-30T08:32:29.818Z,989.2
2018-04-30T08:33:32.253Z,989.3
2018-04-30T08:34:34.981Z,989.2
2018-04-30T08:35:37.418Z,989.2
2018-04-30T08:36:40.362Z,989.2
2018-04-30T08:37:42.698Z,989.1
2018-04-30T08:38:45.150Z,989.1
2018-04-30T08:39:47.887Z,989.2
2018-04-30T08:40:50.327Z,989.2
2018-04-30T08:41:52.777Z,989.2
2018-04-30T08:42:55.220Z,989.1
2018-04-30T08:43:57.667Z,989
2018-04-30T08:45:00.418Z,989
2018-04-30T08:46:04.012Z,989
2018-04-30T08:47:06.451Z,989
2018-04-30T08:48:08.902Z,989
2018-04-30T08:49:11.342Z,989
2018-04-30T08:50:13.782Z,989
2018-04-30T08:51:16.237Z,989
2018-04-30T08:52:18.681Z,989.1
2018-04-30T08:53:21.121Z,989
2018-04-30T08:54:23.876Z,989
2018-04-30T08:55:26.632Z,989
2018-04-30T08:56:29.091Z,989
2018-04-30T08:57:31.533Z,988.9
2018-04-30T08:58:34.005Z,989
2018-04-30T08:59:36.817Z,989
2018-04-30T09:00:39.376Z,989
2018-04-30T09:01:41.841Z,989
2018-04-30T09:02:44.298Z,989.1
2018-04-30T09:03:47.544Z,989.1
2018-04-30T09:04:49.998Z,989
2018-04-30T09:05:52.954Z,989.1
2018-04-30T09:06:55.835Z,989.1
2018-04-30T09:07:59.204Z,989.1
2018-04-30T09:09:02.292Z,989.1
2018-04-30T09:10:05.653Z,989.1
2018-04-30T09:11:08.636Z,989.2
2018-04-30T09:12:11.428Z,989.1
2018-04-30T09:13:14.331Z,989.1
2018-04-30T09:14:16.917Z,989
2018-04-30T09:15:19.626Z,989.1
2018-04-30T09:16:22.555Z,989.1
2018-04-30T09:17:25.399Z,989.1
2018-04-30T09:18:28.169Z,989.1
2018-04-30T09:19:30.623Z,989
2018-04-30T09:20:34.433Z,989.1
2018-04-30T09:21:36.941Z,989.1
2018-04-30T09:22:39.472Z,989.1
2018-04-30T09:23:41.993Z,989.1
2018-04-30T09:24:45.282Z,989.1
2018-04-30T09:25:48.358Z,989.1
2018-04-30T09:26:50.817Z,989.1
2018-04-30T09:27:53.282Z,989.1
2018-04-30T09:28:56.015Z,989.1
2018-04-30T09:29:58.456Z,989.1
2018-04-30T09:31:00.911Z,989.2
2018-04-30T09:32:03.359Z,989.1
2018-04-30T09:33:06.475Z,989.2
2018-04-30T09:34:08.931Z,989.2
2018-04-30T09:35:11.364Z,989.2
2018-04-30T09:36:14.124Z,989.1
2018-04-30T09:37:16.555Z,989.1
2018-04-30T09:38:19.021Z,989.1
2018-04-30T09:39:21.472Z,989.1
2018-04-30T09:40:23.922Z,989
2018-04-30T09:41:26.373Z,989.1
2018-04-30T09:42:28.828Z,989.1
2018-04-30T09:43:31.274Z,989.2
2018-04-30T09:44:33.730Z,989.1
2018-04-30T09:45:36.170Z,989
2018-04-30T09:46:38.615Z,989.1
2018-04-30T09:47:41.075Z,989.2
2018-04-30T09:48:43.819Z,989.1
2018-04-30T09:49:46.266Z,989.2
2018-04-30T09:50:49.012Z,989.1
2018-04-30T09:51:51.461Z,989.1
2018-04-30T09:52:53.907Z,989.1
2018-04-30T09:53:56.358Z,989.1
2018-04-30T09:54:58.819Z,989.1
2018-04-30T09:56:01.554Z,989
2018-04-30T09:57:04.293Z,989
2018-04-30T09:58:06.746Z,989.1
2018-04-30T09:59:09.193Z,989
2018-04-30T10:00:11.645Z,989.1
2018-04-30T10:01:14.104Z,989.1
2018-04-30T10:02:16.538Z,989.1
2018-04-30T10:03:18.994Z,989.1
2018-04-30T10:04:21.448Z,989
2018-04-30T10:05:24.199Z,989.1
2018-04-30T10:06:26.651Z,989
2018-04-30T10:07:29.099Z,989
2018-04-30T10:08:31.540Z,989.1
2018-04-30T10:09:34.009Z,989
2018-04-30T10:10:36.461Z,989.1
2018-04-30T10:11:38.908Z,989
2018-04-30T10:12:41.360Z,989
2018-04-30T10:13:44.188Z,989
2018-04-30T10:14:46.647Z,989
2018-04-30T10:15:49.397Z,989
2018-04-30T10:16:51.836Z,989
2018-04-30T10:17:54.284Z,989.1
2018-04-30T10:18:56.740Z,989.1
2018-04-30T10:19:59.188Z,989.2
2018-04-30T10:21:01.636Z,989.2
2018-04-30T10:22:04.087Z,989.2
2018-04-30T10:23:06.846Z,989.2
2018-04-30T10:24:09.675Z,989.2
2018-04-30T10:25:12.125Z,989.2
2018-04-30T10:26:14.857Z,989.2
2018-04-30T10:27:17.700Z,989.2
2018-04-30T10:28:20.429Z,989.2
2018-04-30T10:29:22.892Z,989.3
2018-04-30T10:30:25.346Z,989.3
2018-04-30T10:31:27.795Z,989.3
2018-04-30T10:32:30.546Z,989.2
2018-04-30T10:33:32.988Z,989.3
2018-04-30T10:34:35.438Z,989.3
2018-04-30T10:35:37.905Z,989.3
2018-04-30T10:36:40.348Z,989.3
2018-04-30T10:37:42.875Z,989.3
2018-04-30T10:38:45.568Z,989.3
2018-04-30T10:39:48.311Z,989.4
2018-04-30T10:40:50.759Z,989.4
2018-04-30T10:41:53.215Z,989.4
2018-04-30T10:42:55.648Z,989.5
2018-04-30T10:43:58.097Z,989.4
2018-04-30T10:45:00.546Z,989.5
2018-04-30T10:46:03.020Z,989.5
2018-04-30T10:47:05.761Z,989.5
2018-04-30T10:48:08.499Z,989.5
2018-04-30T10:49:11.255Z,989.5
2018-04-30T10:50:13.716Z,989.5
2018-04-30T10:51:16.848Z,989.5
2018-04-30T10:52:19.289Z,989.5
2018-04-30T10:53:21.738Z,989.6
2018-04-30T10:54:24.188Z,989.5
2018-04-30T10:55:26.636Z,989.6
2018-04-30T10:56:29.085Z,989.6
2018-04-30T10:57:31.542Z,989.5
2018-04-30T10:58:33.985Z,989.5
2018-04-30T10:59:36.435Z,989.7
2018-04-30T11:00:38.882Z,989.8
2018-04-30T11:01:41.635Z,989.8
2018-04-30T11:02:44.162Z,989.8
2018-04-30T11:03:46.903Z,989.7
2018-04-30T11:04:49.345Z,989.7
2018-04-30T11:05:51.802Z,989.8
2018-04-30T11:06:54.622Z,989.8
2018-04-30T11:07:57.078Z,989.8
2018-04-30T11:08:59.531Z,989.8
2018-04-30T11:10:01.975Z,989.8
2018-04-30T11:11:05.107Z,989.8
2018-04-30T11:12:07.554Z,989.8
2018-04-30T11:13:10.004Z,989.8
2018-04-30T11:14:12.743Z,989.7
2018-04-30T11:15:15.187Z,989.8
2018-04-30T11:16:17.640Z,989.8
2018-04-30T11:17:20.088Z,989.8
2018-04-30T11:18:22.553Z,989.8
2018-04-30T11:19:25.008Z,989.8
2018-04-30T11:20:27.464Z,989.8
2018-04-30T11:21:30.024Z,989.8
2018-04-30T11:22:32.905Z,989.8
2018-04-30T11:23:35.348Z,989.8
2018-04-30T11:24:37.802Z,989.7
2018-04-30T11:25:40.298Z,990
2018-04-30T11:26:42.816Z,989.8
2018-04-30T11:27:45.539Z,989.9
2018-04-30T11:28:48.554Z,990
2018-04-30T11:29:51.140Z,990
2018-04-30T11:30:53.745Z,989.8
2018-04-30T11:31:56.575Z,989.9
2018-04-30T11:32:59.222Z,990
2018-04-30T11:34:01.868Z,990
2018-04-30T11:35:04.440Z,990.1
2018-04-30T11:36:07.368Z,990
2018-04-30T11:37:10.034Z,990
2018-04-30T11:38:12.764Z,990.1
2018-04-30T11:39:15.453Z,990.1
2018-04-30T11:40:18.117Z,990.1
2018-04-30T11:41:24.138Z,990.2
2018-04-30T11:42:26.648Z,990.2
2018-04-30T11:43:29.341Z,990.2
2018-04-30T11:44:31.834Z,990.2
2018-04-30T11:45:34.413Z,990.2
2018-04-30T11:46:37.024Z,990.3
2018-04-30T11:47:39.579Z,990.3
2018-04-30T11:48:43.697Z,990.3
2018-04-30T11:49:47.731Z,990.3
2018-04-30T11:50:50.286Z,990.2
2018-04-30T11:51:53.057Z,990.4
2018-04-30T11:52:55.961Z,990.5
2018-04-30T11:53:59.050Z,990.4
2018-04-30T11:55:02.606Z,990.4
2018-04-30T11:56:05.183Z,990.5
2018-04-30T11:57:07.737Z,990.5
2018-04-30T11:58:10.359Z,990.5
2018-04-30T11:59:14.180Z,990.6
2018-04-30T12:00:16.766Z,990.6
2018-04-30T12:01:19.519Z,990.6
2018-04-30T12:02:22.807Z,990.6
2018-04-30T12:03:26.165Z,990.6
2018-04-30T12:04:28.903Z,990.7
2018-04-30T12:05:32.139Z,990.7
2018-04-30T12:06:36.098Z,990.6
2018-04-30T12:07:38.655Z,990.7
2018-04-30T12:08:41.226Z,990.7
2018-04-30T12:09:43.763Z,990.7
2018-04-30T12:10:46.386Z,990.8
2018-04-30T12:11:49.203Z,990.8
2018-04-30T12:12:51.830Z,990.8
2018-04-30T12:13:54.400Z,990.8
2018-04-30T12:14:57.034Z,990.8
2018-04-30T12:15:59.615Z,990.8
2018-04-30T12:17:02.109Z,990.9
2018-04-30T12:18:04.680Z,990.8
2018-04-30T12:19:07.374Z,990.8
2018-04-30T12:20:10.057Z,990.9
2018-04-30T12:21:12.594Z,990.9
2018-04-30T12:22:15.183Z,990.9
2018-04-30T12:23:17.743Z,990.9
2018-04-30T12:24:20.291Z,990.9
2018-04-30T12:25:22.819Z,990.9
2018-04-30T12:26:25.731Z,990.9
2018-04-30T12:27:28.388Z,991
2018-04-30T12:28:32.033Z,991
2018-04-30T12:29:34.739Z,991
2018-04-30T12:30:37.376Z,991
2018-04-30T12:31:39.935Z,991
2018-04-30T12:32:42.629Z,991.1
2018-04-30T12:33:45.150Z,991.1
2018-04-30T12:34:47.797Z,991.2
2018-04-30T12:35:51.455Z,991.2
2018-04-30T12:36:54.000Z,991.2
2018-04-30T12:37:56.567Z,991.2
2018-04-30T12:39:00.485Z,991.3
2018-04-30T12:40:03.046Z,991.2
2018-04-30T12:41:05.659Z,991.4
2018-04-30T12:42:08.341Z,991.5
2018-04-30T12:43:10.953Z,991.4
2018-04-30T12:44:14.226Z,991.4
2018-04-30T12:45:17.144Z,991.5
2018-04-30T12:46:20.460Z,991.6
2018-04-30T12:47:23.348Z,991.5
2018-04-30T12:48:25.896Z,991.5
2018-04-30T12:49:28.501Z,991.5
2018-04-30T12:50:31.005Z,991.5
2018-04-30T12:51:33.527Z,991.6
2018-04-30T12:52:36.642Z,991.5
2018-04-30T12:53:39.745Z,991.6
2018-04-30T12:54:46.770Z,991.7
2018-04-30T12:55:49.830Z,991.9
2018-04-30T12:58:25.195Z,992
2018-04-30T12:59:27.694Z,992.1
2018-04-30T13:00:30.260Z,992.1
2018-04-30T13:01:33.977Z,992.1
2018-04-30T13:04:09.484Z,992
2018-04-30T13:05:12.180Z,992.1
2018-04-30T13:06:14.784Z,992.1
2018-04-30T13:07:17.267Z,992
2018-04-30T13:08:19.787Z,992.1
2018-04-30T13:09:23.892Z,992.2
2018-04-30T13:10:30.433Z,992.2
2018-04-30T13:11:34.557Z,992.2
2018-04-30T13:12:37.507Z,992.3
2018-04-30T13:13:40.288Z,992.3
2018-04-30T13:14:48.812Z,992.3
2018-04-30T13:15:51.619Z,992.4
2018-04-30T13:16:55.423Z,992.5
2018-04-30T13:17:59.606Z,992.5
2018-04-30T13:20:35.898Z,992.4
2018-04-30T13:21:38.440Z,992.4
2018-04-30T13:22:40.988Z,992.4
2018-04-30T13:23:43.419Z,992.4
2018-04-30T13:24:46.265Z,992.6
2018-04-30T13:25:48.863Z,992.6
2018-04-30T13:26:51.449Z,992.6
2018-04-30T13:27:54.141Z,992.5
2018-04-30T13:28:56.594Z,992.6
2018-04-30T13:29:59.090Z,992.7
2018-04-30T13:31:01.733Z,992.7
2018-04-30T13:32:04.300Z,992.6
2018-04-30T13:33:06.848Z,992.7
2018-04-30T13:34:09.364Z,992.7
2018-04-30T13:36:44.843Z,992.8
2018-04-30T13:37:47.821Z,992.8
2018-04-30T13:38:50.333Z,992.9
2018-04-30T13:39:52.838Z,992.8